Time;durP1;ratioP1;P1;durP2;ratioP2;P2;SDS_P1;SDS_P2;PMS_P1;PMS_P2;Temp;Humidity;BMP_temperature;BMP_pressure;BME280_temperature;BME280_humidity;BME280_pressure;Samples;Min_cycle;Max_cycle;Signal;HPM_P1;HPM_P2
2022/11/30 00:00:46;;;;;;;70.95;24.83;;;;;;;7.85;97.52;101727.31;5056264;28;20111;-62
2022/11/30 00:03:12;;;;;;;59.15;23.67;;;;;;;7.85;97.70;101729.91;5052870;28;20097;-63
2022/11/30 00:05:37;;;;;;;61.67;23.35;;;;;;;7.87;97.39;101728.22;5056223;28;20044;-63
2022/11/30 00:08:03;;;;;;;69.97;25.95;;;;;;;7.86;97.46;101724.75;5050576;28;20036;-64
2022/11/30 00:10:28;;;;;;;69.30;27.23;;;;;;;7.84;97.43;101730.72;5049605;28;20650;-63
2022/11/30 00:12:54;;;;;;;66.32;24.35;;;;;;;7.85;98.16;101732.47;5052114;28;20032;-63
2022/11/30 00:15:19;;;;;;;73.63;24.70;;;;;;;7.85;97.48;101727.31;5057295;28;20954;-63
2022/11/30 00:17:45;;;;;;;77.63;26.98;;;;;;;7.85;97.51;101733.34;5051961;28;20045;-63
2022/11/30 00:20:14;;;;;;;70.88;26.70;;;;;;;7.83;98.18;101729.84;5049265;28;20040;-63
2022/11/30 00:22:40;;;;;;;74.95;27.95;;;;;;;7.83;97.63;101737.56;5055459;28;20516;-62
2022/11/30 00:25:07;;;;;;;75.75;26.70;;;;;;;7.82;97.54;101732.41;5050424;28;20041;-63
2022/11/30 00:27:33;;;;;;;69.40;24.92;;;;;;;7.84;97.84;101738.44;5052574;28;20115;-63
2022/11/30 00:29:59;;;;;;;59.25;23.05;;;;;;;7.84;97.79;101736.75;5050706;28;20024;-62
2022/11/30 00:32:26;;;;;;;61.47;26.55;;;;;;;7.85;98.14;101733.34;5053820;28;20464;-63
2022/11/30 00:34:51;;;;;;;70.40;27.45;;;;;;;7.83;98.10;101726.44;5053155;28;20033;-63
2022/11/30 00:37:17;;;;;;;83.88;27.67;;;;;;;7.83;98.35;101734.16;5053438;28;20037;-63
2022/11/30 00:39:43;;;;;;;87.15;28.60;;;;;;;7.79;97.96;101740.94;5052324;28;20719;-63
2022/11/30 00:42:08;;;;;;;73.47;26.98;;;;;;;7.76;97.45;101733.19;5050615;28;20155;-63
2022/11/30 00:44:33;;;;;;;73.60;27.38;;;;;;;7.75;97.97;101738.28;5056149;28;20035;-63
2022/11/30 00:46:59;;;;;;;76.82;26.50;;;;;;;7.73;97.81;101729.66;5047623;28;20051;-63
2022/11/30 00:49:24;;;;;;;72.53;26.83;;;;;;;7.70;98.23;101738.22;5049869;28;20398;-63
2022/11/30 00:51:50;;;;;;;66.82;27.13;;;;;;;7.69;97.65;101735.59;5052657;28;20165;-63
2022/11/30 00:54:15;;;;;;;70.30;26.42;;;;;;;7.67;98.04;101739.84;5051028;28;20155;-63
2022/11/30 00:56:40;;;;;;;86.68;26.92;;;;;;;7.67;97.87;101743.28;5056012;28;20713;-63
2022/11/30 00:59:06;;;;;;;69.07;25.48;;;;;;;7.69;98.10;101740.72;5053278;28;20076;-63
2022/11/30 01:01:31;;;;;;;72.72;26.27;;;;;;;7.69;98.54;101735.59;5053489;28;20420;-63
2022/11/30 01:03:57;;;;;;;77.38;28.17;;;;;;;7.68;98.40;101739.91;5049110;28;20090;-63
2022/11/30 01:06:23;;;;;;;79.57;28.02;;;;;;;7.66;97.91;101735.53;5031049;28;20040;-59
2022/11/30 01:08:48;;;;;;;80.35;28.67;;;;;;;7.65;98.23;101733.81;5033967;28;20064;-59
2022/11/30 01:11:17;;;;;;;82.22;30.25;;;;;;;7.65;98.13;101736.38;5026819;28;20795;-59
2022/11/30 01:13:42;;;;;;;78.25;28.15;;;;;;;7.65;97.75;101732.13;5028669;28;20079;-59
2022/11/30 01:16:17;;;;;;;89.53;29.65;;;;;;;7.64;97.70;101735.53;5036958;28;20131;-60
2022/11/30 01:18:43;;;;;;;84.88;30.30;;;;;;;7.65;97.83;101734.69;5049871;28;20040;-59
2022/11/30 01:21:12;;;;;;;74.30;26.45;;;;;;;7.66;98.49;101731.25;5048354;28;20025;-59
2022/11/30 01:23:38;;;;;;;82.10;29.20;;;;;;;7.66;98.33;101727.81;5052194;28;20046;-59
2022/11/30 01:26:03;;;;;;;86.28;32.20;;;;;;;7.64;98.47;101724.34;5052826;28;20268;-59
2022/11/30 01:28:28;;;;;;;90.93;32.70;;;;;;;7.59;97.81;101731.13;5047400;28;20048;-59
2022/11/30 01:31:06;;;;;;;86.68;31.80;;;;;;;7.55;97.86;101737.91;5051361;28;20049;-59
2022/11/30 01:33:32;;;;;;;84.45;30.90;;;;;;;7.54;98.02;101737.88;5048449;28;20061;-59
2022/11/30 01:36:22;;;;;;;85.53;30.58;;;;;;;7.53;98.08;101741.31;5051888;28;20031;-59
2022/11/30 01:38:50;;;;;;;82.78;30.92;;;;;;;7.52;98.07;101730.13;5051209;28;20036;-59
2022/11/30 01:41:34;;;;;;;95.13;31.88;;;;;;;7.50;98.15;101742.13;5050396;28;20043;-59
2022/11/30 01:44:06;;;;;;;93.05;31.05;;;;;;;7.47;98.12;101731.75;5056294;28;20835;-59
2022/11/30 01:46:37;;;;;;;92.43;31.63;;;;;;;7.47;98.54;101731.75;5046830;28;20501;-59
2022/11/30 01:49:08;;;;;;;101.57;34.65;;;;;;;7.41;97.86;101727.38;5052288;28;20056;-59
2022/11/30 01:51:43;;;;;;;101.30;32.28;;;;;;;7.39;97.81;101728.16;5044655;28;20029;-59
2022/11/30 01:54:11;;;;;;;113.63;35.30;;;;;;;7.37;98.33;101735.84;5050316;28;20021;-59
2022/11/30 01:56:40;;;;;;;122.43;37.50;;;;;;;7.39;98.38;101735.88;5054678;28;20036;-59
2022/11/30 01:59:05;;;;;;;107.20;36.67;;;;;;;7.36;98.24;101738.38;5052228;28;20098;-60
2022/11/30 02:01:31;;;;;;;116.47;38.00;;;;;;;7.35;98.48;101736.66;5052730;28;20025;-59
2022/11/30 02:04:17;;;;;;;110.63;35.75;;;;;;;7.34;98.30;101734.91;5057002;28;20032;-59
2022/11/30 02:06:44;;;;;;;116.65;35.35;;;;;;;7.33;98.63;101739.19;5052821;28;20032;-59
2022/11/30 02:09:11;;;;;;;109.65;36.15;;;;;;;7.35;98.44;101734.97;5054706;28;20070;-59
2022/11/30 02:11:37;;;;;;;120.03;38.70;;;;;;;7.35;98.79;101736.66;5048554;28;20033;-59
2022/11/30 02:14:13;;;;;;;125.45;39.08;;;;;;;7.35;98.21;101732.38;5052164;28;20025;-59
2022/11/30 02:16:46;;;;;;;135.40;38.75;;;;;;;7.36;98.84;101738.38;5052370;28;20036;-59
2022/11/30 02:19:30;;;;;;;131.73;39.72;;;;;;;7.37;98.76;101729.84;5054453;28;20068;-59
2022/11/30 02:22:01;;;;;;;139.68;40.85;;;;;;;7.39;98.57;101741.00;5051316;28;20750;-60
2022/11/30 02:24:43;;;;;;;134.10;40.10;;;;;;;7.36;98.70;101734.09;5045893;28;20044;-59
2022/11/30 02:27:17;;;;;;;133.63;39.78;;;;;;;7.37;98.76;101735.84;5045722;28;20064;-59
2022/11/30 02:29:48;;;;;;;133.73;41.25;;;;;;;7.38;99.34;101734.16;5047032;28;20044;-59
2022/11/30 02:32:39;;;;;;;134.93;39.13;;;;;;;7.39;99.41;101729.03;5052280;28;20103;-60
2022/11/30 02:35:08;;;;;;;127.68;38.22;;;;;;;7.41;99.19;101729.94;5051899;28;20067;-59
2022/11/30 02:37:36;;;;;;;119.53;35.05;;;;;;;7.44;99.41;101732.56;5052015;28;20143;-59
2022/11/30 02:40:08;;;;;;;127.60;37.17;;;;;;;7.45;99.06;101724.00;5043507;28;20580;-59
2022/11/30 02:42:33;;;;;;;119.32;37.78;;;;;;;7.48;99.29;101725.75;5042426;28;20024;-59
2022/11/30 02:44:58;;;;;;;129.48;37.58;;;;;;;7.48;99.08;101736.03;5055827;28;20475;-59
2022/11/30 02:47:35;;;;;;;123.45;38.42;;;;;;;7.51;99.12;101730.09;5044323;28;20152;-59
2022/11/30 02:50:03;;;;;;;136.15;39.83;;;;;;;7.53;99.19;101731.88;5052268;28;20491;-60
2022/11/30 02:52:30;;;;;;;123.45;37.08;;;;;;;7.56;99.59;101737.09;5043851;28;20051;-59
2022/11/30 02:55:05;;;;;;;123.30;36.22;;;;;;;7.57;99.46;101736.22;5048269;28;20044;-59
2022/11/30 02:57:31;;;;;;;138.35;38.95;;;;;;;7.57;99.03;101736.22;5052262;28;20089;-59
2022/11/30 02:59:58;;;;;;;123.10;37.55;;;;;;;7.57;99.12;101732.78;5055155;28;20028;-59
2022/11/30 03:02:23;;;;;;;105.65;35.33;;;;;;;7.58;99.34;101737.09;5057437;28;20112;-59
2022/11/30 03:04:49;;;;;;;129.27;39.00;;;;;;;7.59;99.03;101738.84;5057594;28;20497;-59
2022/11/30 03:07:14;;;;;;;131.82;37.80;;;;;;;7.58;99.52;101737.97;5055469;28;20090;-59
2022/11/30 03:09:39;;;;;;;120.70;35.63;;;;;;;7.59;99.23;101736.28;5054707;28;20118;-59
2022/11/30 03:12:05;;;;;;;133.80;39.83;;;;;;;7.59;98.74;101746.56;5046701;28;20504;-59
2022/11/30 03:14:30;;;;;;;142.02;38.28;;;;;;;7.57;98.75;101745.66;5048345;28;20029;-59
2022/11/30 03:16:56;;;;;;;150.38;37.38;;;;;;;7.56;99.20;101747.38;5053666;28;20044;-59
2022/11/30 03:19:21;;;;;;;127.57;34.70;;;;;;;7.54;98.94;101754.19;5047770;28;20789;-59
2022/11/30 03:21:47;;;;;;;143.18;39.22;;;;;;;7.53;98.98;101752.47;5047693;28;20723;-59
2022/11/30 03:24:12;;;;;;;132.93;34.25;;;;;;;7.54;99.14;101749.03;5051625;28;21902;-59
2022/11/30 03:26:37;;;;;;;161.23;39.08;;;;;;;7.53;99.22;101749.88;5050524;28;20040;-59
2022/11/30 03:29:03;;;;;;;155.90;42.00;;;;;;;7.53;99.07;101754.16;5049386;28;20143;-59
2022/11/30 03:31:28;;;;;;;142.35;36.60;;;;;;;7.54;99.54;101756.75;5051384;28;20044;-62
2022/11/30 03:33:54;;;;;;;138.93;37.25;;;;;;;7.54;99.67;101763.59;5052459;28;20029;-63
2022/11/30 03:36:19;;;;;;;150.20;40.55;;;;;;;7.53;99.11;101756.72;5050801;28;20098;-64
2022/11/30 03:38:46;;;;;;;155.57;38.35;;;;;;;7.53;99.45;101756.72;5053415;28;20545;-63
2022/11/30 03:41:15;;;;;;;144.55;36.53;;;;;;;7.53;99.55;101757.59;5047887;28;20131;-63
2022/11/30 03:43:41;;;;;;;127.30;32.40;;;;;;;7.53;99.64;101757.59;5041083;28;20155;-63
2022/11/30 03:46:07;;;;;;;100.63;28.15;;;;;;;7.55;99.44;101760.19;5039537;28;20048;-63
2022/11/30 03:48:34;;;;;;;111.57;29.02;;;;;;;7.55;99.17;101755.03;5050054;28;20025;-63
2022/11/30 03:51:00;;;;;;;109.78;29.42;;;;;;;7.54;99.46;101749.03;5036127;28;20068;-63
2022/11/30 03:53:26;;;;;;;113.95;29.55;;;;;;;7.56;99.19;101754.22;5031754;28;20143;-63
2022/11/30 03:55:57;;;;;;;108.25;28.08;;;;;;;7.53;99.35;101752.47;5029485;28;20495;-63
2022/11/30 03:58:24;;;;;;;94.28;26.88;;;;;;;7.51;99.78;101753.25;5037852;28;20100;-64
2022/11/30 04:00:56;;;;;;;111.35;36.22;;;;;;;7.52;99.86;101763.56;5031071;28;20465;-63
2022/11/30 04:03:22;;;;;;;122.85;34.42;;;;;;;7.51;100.00;101750.66;5049087;28;20550;-64
2022/11/30 04:05:47;;;;;;;95.22;28.77;;;;;;;7.51;99.90;101755.81;5049861;28;20159;-63
2022/11/30 04:08:13;;;;;;;100.47;28.17;;;;;;;7.51;99.82;101748.97;5051843;28;20990;-63
2022/11/30 04:10:38;;;;;;;95.38;27.98;;;;;;;7.52;99.90;101748.16;5045888;28;20040;-64
2022/11/30 04:13:03;;;;;;;91.00;27.20;;;;;;;7.53;99.64;101751.59;5044775;28;20075;-63
2022/11/30 04:15:29;;;;;;;82.45;25.17;;;;;;;7.54;99.76;101743.88;5051473;28;20040;-63
2022/11/30 04:17:54;;;;;;;112.15;31.33;;;;;;;7.55;99.61;101747.34;5050451;28;20049;-63
2022/11/30 04:20:19;;;;;;;93.00;27.58;;;;;;;7.54;99.92;101743.00;5050752;28;20053;-63
2022/11/30 04:22:45;;;;;;;106.43;29.63;;;;;;;7.54;100.00;101746.47;5048342;28;20138;-63
2022/11/30 04:25:10;;;;;;;109.88;29.10;;;;;;;7.54;99.99;101741.31;5054391;28;20046;-63
2022/11/30 04:27:36;;;;;;;109.78;29.55;;;;;;;7.52;100.00;101740.44;5050998;28;20601;-63
2022/11/30 04:30:01;;;;;;;114.75;29.58;;;;;;;7.53;100.00;101736.16;5050004;28;20029;-63
2022/11/30 04:32:26;;;;;;;111.93;31.42;;;;;;;7.51;100.00;101733.53;5052361;28;20037;-63
2022/11/30 04:34:52;;;;;;;114.78;31.67;;;;;;;7.50;100.00;101736.09;5049192;28;20037;-63
2022/11/30 04:37:17;;;;;;;119.25;33.65;;;;;;;7.49;99.67;101742.94;5049312;28;20037;-63
2022/11/30 04:39:43;;;;;;;107.93;31.08;;;;;;;7.49;99.82;101742.94;5051301;28;20162;-63
2022/11/30 04:42:08;;;;;;;115.10;31.58;;;;;;;7.47;100.00;101739.47;5048500;28;20042;-64
2022/11/30 04:44:34;;;;;;;103.00;30.50;;;;;;;7.49;100.00;101748.09;5045394;28;20060;-63
2022/11/30 04:46:59;;;;;;;126.68;32.20;;;;;;;7.48;100.00;101748.91;5047304;28;20123;-63
2022/11/30 04:49:24;;;;;;;115.43;31.58;;;;;;;7.49;100.00;101750.66;5046149;28;20033;-63
2022/11/30 04:51:50;;;;;;;122.65;33.28;;;;;;;7.50;100.00;101754.97;5049212;28;20729;-63
2022/11/30 04:54:15;;;;;;;115.55;32.00;;;;;;;7.51;100.00;101748.97;5053555;28;20066;-63
2022/11/30 04:56:40;;;;;;;104.75;30.00;;;;;;;7.51;100.00;101748.97;5048514;28;20084;-64
2022/11/30 04:59:09;;;;;;;126.88;31.77;;;;;;;7.52;100.00;101750.72;5047914;28;20047;-64
2022/11/30 05:01:34;;;;;;;131.85;33.25;;;;;;;7.54;100.00;101751.59;5052338;28;20044;-63
2022/11/30 05:04:00;;;;;;;130.50;34.15;;;;;;;7.53;100.00;101749.00;5048052;28;20048;-63
2022/11/30 05:06:25;;;;;;;133.32;35.55;;;;;;;7.52;100.00;101750.72;5028520;28;20062;-63
2022/11/30 05:08:51;;;;;;;138.15;35.65;;;;;;;7.53;100.00;101749.88;5031590;28;20036;-63
2022/11/30 05:11:16;;;;;;;137.60;35.28;;;;;;;7.55;100.00;101760.19;5032410;28;20091;-63
2022/11/30 05:13:42;;;;;;;137.73;34.67;;;;;;;7.54;100.00;101759.31;5021837;28;20103;-63
2022/11/30 05:16:09;;;;;;;136.77;35.08;;;;;;;7.53;100.00;101752.47;5028056;28;20040;-63
2022/11/30 05:18:34;;;;;;;148.10;36.38;;;;;;;7.54;100.00;101750.72;5034910;28;20027;-63
2022/11/30 05:21:03;;;;;;;145.35;37.33;;;;;;;7.55;100.00;101753.34;5049546;28;20029;-63
2022/11/30 05:23:28;;;;;;;160.88;37.10;;;;;;;7.57;100.00;101755.94;5034238;28;20048;-63
2022/11/30 05:25:54;;;;;;;145.30;36.25;;;;;;;7.58;100.00;101761.13;5042257;28;20041;-64
2022/11/30 05:28:19;;;;;;;133.77;35.22;;;;;;;7.59;100.00;101754.28;5043950;28;20049;-63
2022/11/30 05:30:44;;;;;;;150.80;35.65;;;;;;;7.61;100.00;101750.03;5025508;28;20053;-63
2022/11/30 05:33:11;;;;;;;152.07;38.75;;;;;;;7.61;100.00;101753.47;5030799;28;20083;-64
2022/11/30 05:35:36;;;;;;;141.25;33.08;;;;;;;7.63;100.00;101756.94;5024570;28;20036;-63
2022/11/30 05:38:02;;;;;;;163.73;38.28;;;;;;;7.64;100.00;101765.53;5044422;28;20079;-60
2022/11/30 05:40:29;;;;;;;170.07;40.38;;;;;;;7.64;100.00;101753.53;5044318;28;20051;-60
2022/11/30 05:42:59;;;;;;;169.98;42.28;;;;;;;7.65;100.00;101752.69;5039038;28;20065;-60
2022/11/30 05:45:24;;;;;;;173.50;42.92;;;;;;;7.68;100.00;101751.88;5052740;28;20051;-62
2022/11/30 05:47:53;;;;;;;155.50;40.90;;;;;;;7.68;100.00;101754.47;5051962;28;20495;-60
2022/11/30 05:50:18;;;;;;;189.27;45.08;;;;;;;7.69;100.00;101762.19;5049382;28;20127;-60
2022/11/30 05:52:44;;;;;;;145.20;39.85;;;;;;;7.70;100.00;101763.94;5047973;28;20037;-60
2022/11/30 05:55:09;;;;;;;143.23;42.03;;;;;;;7.70;100.00;101760.50;5052145;28;20110;-60
2022/11/30 05:57:36;;;;;;;150.45;44.35;;;;;;;7.70;100.00;101763.06;5039809;28;20032;-60
2022/11/30 06:00:05;;;;;;;159.57;43.42;;;;;;;7.70;100.00;101773.34;5052289;28;20241;-60
2022/11/30 06:02:30;;;;;;;136.82;37.13;;;;;;;7.69;100.00;101772.50;5051221;28;20051;-60
2022/11/30 06:04:56;;;;;;;129.68;38.00;;;;;;;7.69;100.00;101771.63;5050791;28;20044;-60
2022/11/30 06:07:21;;;;;;;118.95;36.78;;;;;;;7.68;100.00;101773.34;5048645;28;20044;-60
2022/11/30 06:09:46;;;;;;;125.03;39.63;;;;;;;7.68;100.00;101772.47;5054890;28;20037;-60
2022/11/30 06:12:12;;;;;;;108.78;35.60;;;;;;;7.67;100.00;101776.75;5051820;28;20131;-60
2022/11/30 06:14:37;;;;;;;110.22;37.33;;;;;;;7.68;100.00;101777.63;5053146;28;20040;-59
2022/11/30 06:17:03;;;;;;;103.78;35.33;;;;;;;7.68;100.00;101780.19;5052991;28;20071;-60
2022/11/30 06:19:28;;;;;;;103.40;34.55;;;;;;;7.67;100.00;101779.31;5036212;28;20144;-60
2022/11/30 06:21:54;;;;;;;114.57;36.53;;;;;;;7.68;100.00;101781.06;5022649;28;20044;-60
2022/11/30 06:24:19;;;;;;;104.97;34.65;;;;;;;7.68;99.73;101783.63;5032724;28;20033;-60
2022/11/30 06:26:45;;;;;;;104.82;35.45;;;;;;;7.68;99.74;101781.06;5034721;28;20040;-60
2022/11/30 06:29:10;;;;;;;107.32;35.72;;;;;;;7.70;99.49;101779.38;5028712;28;20557;-60
2022/11/30 06:31:35;;;;;;;101.88;34.40;;;;;;;7.71;99.85;101781.13;5027006;28;20049;-60
2022/11/30 06:34:01;;;;;;;95.93;33.22;;;;;;;7.71;99.48;101781.13;5030164;28;20103;-60
2022/11/30 06:36:27;;;;;;;87.20;31.42;;;;;;;7.72;99.64;101782.84;5033217;28;20520;-60
2022/11/30 06:38:53;;;;;;;92.35;32.85;;;;;;;7.73;99.80;101787.16;5035206;28;20033;-60
2022/11/30 06:41:19;;;;;;;102.32;37.35;;;;;;;7.72;99.63;101789.69;5035862;28;20095;-60
2022/11/30 06:43:44;;;;;;;97.22;32.97;;;;;;;7.70;99.17;101789.66;5053946;28;20750;-61
2022/11/30 06:46:10;;;;;;;93.68;33.97;;;;;;;7.71;99.30;101791.41;5048724;28;20045;-60
2022/11/30 06:48:35;;;;;;;96.78;37.53;;;;;;;7.71;99.06;101791.41;5049533;28;20094;-60
2022/11/30 06:51:04;;;;;;;107.40;38.85;;;;;;;7.71;99.63;101796.56;5056936;28;20063;-60
2022/11/30 06:53:29;;;;;;;105.03;36.47;;;;;;;7.70;99.52;101796.53;5054416;28;20040;-60
2022/11/30 06:55:55;;;;;;;108.93;38.35;;;;;;;7.69;99.33;101792.19;5052504;28;20044;-60
2022/11/30 06:58:20;;;;;;;119.03;40.25;;;;;;;7.68;98.94;101800.78;5054666;28;20060;-60
2022/11/30 07:00:46;;;;;;;110.28;39.20;;;;;;;7.66;99.27;101795.59;5053251;28;20033;-60
2022/11/30 07:03:13;;;;;;;104.82;36.72;;;;;;;7.65;99.40;101803.28;5058304;28;20761;-63
2022/11/30 07:05:42;;;;;;;120.97;37.97;;;;;;;7.66;99.58;101811.03;5058648;28;20405;-63
2022/11/30 07:08:08;;;;;;;105.05;35.28;;;;;;;7.67;99.56;101804.19;5057183;28;20029;-63
2022/11/30 07:10:38;;;;;;;124.85;38.00;;;;;;;7.67;99.26;101802.47;5052550;28;20043;-63
2022/11/30 07:13:03;;;;;;;121.93;40.30;;;;;;;7.67;99.47;101804.19;5068515;28;20095;-63
2022/11/30 07:15:29;;;;;;;124.32;38.97;;;;;;;7.67;99.46;101806.75;5050670;28;20824;-63
2022/11/30 07:17:54;;;;;;;110.35;38.78;;;;;;;7.67;99.29;101806.75;5035151;28;20029;-63
2022/11/30 07:20:19;;;;;;;120.90;39.20;;;;;;;7.67;100.00;101811.91;5033790;28;20041;-63
2022/11/30 07:22:45;;;;;;;129.23;42.28;;;;;;;7.68;99.13;101805.94;5033526;28;20049;-63
2022/11/30 07:27:54;;;;;;;120.13;40.67;;;;;;;7.68;99.92;101824.81;5030878;28;20090;-63
2022/11/30 07:30:20;;;;;;;123.93;43.78;;;;;;;7.65;99.84;101829.91;5034526;28;21718;-63
2022/11/30 07:32:45;;;;;;;102.30;39.47;;;;;;;7.61;98.86;101822.94;5054183;28;20044;-63
2022/11/30 07:35:11;;;;;;;120.82;42.13;;;;;;;7.61;99.01;101827.22;5055450;28;20053;-62
2022/11/30 07:37:36;;;;;;;99.18;39.08;;;;;;;7.58;98.40;101825.44;5042587;28;20152;-62
2022/11/30 07:40:03;;;;;;;98.65;37.47;;;;;;;7.54;97.77;101822.75;5040782;28;20040;-62
2022/11/30 07:42:29;;;;;;;95.95;36.58;;;;;;;7.53;97.09;101827.06;5053401;28;20115;-62
2022/11/30 07:44:54;;;;;;;88.65;35.97;;;;;;;7.53;96.99;101829.63;5051078;28;20502;-63
2022/11/30 07:47:20;;;;;;;80.53;33.55;;;;;;;7.51;97.54;101821.00;5056459;28;20123;-62
2022/11/30 07:49:45;;;;;;;91.30;34.38;;;;;;;7.51;96.72;101833.00;5048916;28;20517;-63
2022/11/30 07:52:11;;;;;;;85.65;34.90;;;;;;;7.50;96.18;101827.00;5057003;28;20024;-63
2022/11/30 07:54:36;;;;;;;83.45;30.90;;;;;;;7.53;96.15;101837.34;5054311;28;20028;-62
2022/11/30 07:57:01;;;;;;;79.47;32.65;;;;;;;7.50;96.13;101839.00;5056223;28;20123;-63
2022/11/30 07:59:27;;;;;;;81.32;31.38;;;;;;;7.48;95.72;101831.22;5052193;28;20292;-63
2022/11/30 08:01:52;;;;;;;67.80;30.40;;;;;;;7.50;95.98;101844.13;5055510;28;20036;-62
2022/11/30 08:04:17;;;;;;;70.97;30.35;;;;;;;7.47;95.07;101836.34;5055340;28;20048;-62
2022/11/30 08:06:43;;;;;;;66.25;29.88;;;;;;;7.44;95.21;101840.59;5056643;28;20079;-63
2022/11/30 08:09:14;;;;;;;70.30;28.85;;;;;;;7.45;94.78;101838.88;5047162;28;20036;-63
2022/11/30 08:11:40;;;;;;;69.60;29.38;;;;;;;7.44;94.35;101844.88;5053531;28;20598;-63
2022/11/30 08:14:05;;;;;;;63.92;30.08;;;;;;;7.44;94.60;101850.03;5052814;28;20037;-63
2022/11/30 08:16:36;;;;;;;65.82;28.67;;;;;;;7.44;94.35;101845.75;5054265;28;20033;-63
2022/11/30 08:19:03;;;;;;;62.97;27.42;;;;;;;7.46;94.34;101848.34;5049781;28;20041;-64
2022/11/30 08:21:30;;;;;;;67.45;30.33;;;;;;;7.48;94.17;101853.53;5049431;28;20060;-63
2022/11/30 08:23:56;;;;;;;58.20;26.40;;;;;;;7.47;93.33;101855.22;5014934;28;1099024;-63
2022/11/30 08:26:27;;;;;;;59.90;26.27;;;;;;;7.46;93.29;101858.63;5055720;28;20055;-63
2022/11/30 08:28:53;;;;;;;51.88;24.35;;;;;;;7.47;93.34;101856.94;5053051;28;20044;-63
2022/11/30 08:31:22;;;;;;;51.17;25.52;;;;;;;7.48;92.45;101854.38;5051481;28;20099;-63
2022/11/30 08:33:48;;;;;;;50.85;24.85;;;;;;;7.50;91.85;101859.56;5051140;28;20119;-63
2022/11/30 08:36:20;;;;;;;53.42;25.35;;;;;;;7.54;91.85;101859.66;5052073;28;20075;-63
2022/11/30 08:38:47;;;;;;;54.92;25.02;;;;;;;7.56;91.50;101867.41;5052059;28;20048;-64
2022/11/30 08:41:15;;;;;;;49.10;24.33;;;;;;;7.61;92.19;101866.69;5059846;28;20029;-63
2022/11/30 08:43:41;;;;;;;46.47;23.80;;;;;;;7.64;90.85;101869.31;5051638;28;20036;-63
2022/11/30 08:46:09;;;;;;;43.10;21.85;;;;;;;7.67;90.20;101869.38;5055764;28;20036;-63
2022/11/30 08:48:38;;;;;;;47.05;23.75;;;;;;;7.69;90.79;101869.41;5063329;28;20032;-63
2022/11/30 08:51:06;;;;;;;44.75;22.48;;;;;;;7.66;90.28;101877.06;5061212;28;20028;-64
2022/11/30 08:53:33;;;;;;;44.58;22.15;;;;;;;7.61;90.41;101876.97;5056785;28;20151;-63
2022/11/30 08:56:05;;;;;;;41.65;21.63;;;;;;;7.55;89.63;101876.84;5058714;28;20033;-63
2022/11/30 08:58:34;;;;;;;38.83;21.70;;;;;;;7.51;89.56;101881.88;5052195;28;20051;-63
2022/11/30 09:01:12;;;;;;;43.80;21.85;;;;;;;7.48;90.16;101874.97;5057605;28;20044;-63
2022/11/30 09:03:39;;;;;;;38.13;20.65;;;;;;;7.47;90.31;101893.81;5049950;28;20028;-63
2022/11/30 09:06:07;;;;;;;44.72;21.92;;;;;;;7.45;89.92;101883.47;5033306;28;20033;-63
2022/11/30 09:08:33;;;;;;;39.08;21.38;;;;;;;7.45;89.77;101882.59;5035913;28;20039;-63
2022/11/30 09:11:09;;;;;;;46.03;23.48;;;;;;;7.43;90.27;101879.13;5047740;28;20397;-64
2022/11/30 09:13:35;;;;;;;43.92;23.42;;;;;;;7.44;90.57;101880.88;5049948;28;20036;-64
2022/11/30 09:16:06;;;;;;;45.42;22.45;;;;;;;7.44;91.04;101884.34;5051696;28;20044;-64
2022/11/30 09:18:32;;;;;;;46.92;22.10;;;;;;;7.47;90.59;101880.97;5051714;28;20066;-63
2022/11/30 09:20:59;;;;;;;46.90;25.10;;;;;;;7.48;90.71;101890.38;5052581;28;20058;-63
2022/11/30 09:23:25;;;;;;;46.33;23.30;;;;;;;7.47;90.51;101888.69;5053670;28;20054;-63
2022/11/30 09:25:57;;;;;;;44.50;22.83;;;;;;;7.46;90.16;101894.63;5053967;28;20040;-63
2022/11/30 09:28:23;;;;;;;45.65;25.27;;;;;;;7.47;90.41;101900.66;5051831;28;20072;-62
2022/11/30 09:30:49;;;;;;;43.35;23.20;;;;;;;7.47;90.99;101888.69;5053675;28;20672;-63
2022/11/30 09:33:15;;;;;;;42.92;24.75;;;;;;;7.44;90.87;101897.19;5058184;28;20063;-63
2022/11/30 09:35:40;;;;;;;47.60;24.92;;;;;;;7.47;91.06;101908.38;5054904;28;20039;-64
2022/11/30 09:38:05;;;;;;;46.42;24.20;;;;;;;7.44;90.65;101907.47;5035755;28;20067;-64
2022/11/30 09:40:33;;;;;;;48.17;25.50;;;;;;;7.43;90.56;101899.72;5030466;28;20045;-63
2022/11/30 09:43:15;;;;;;;53.97;26.83;;;;;;;7.43;90.70;101905.75;5036630;28;20040;-64
2022/11/30 09:45:49;;;;;;;52.67;26.15;;;;;;;7.45;91.05;101900.63;5029385;28;20125;-63
2022/11/30 09:48:53;;;;;;;50.35;26.10;;;;;;;7.47;91.21;101898.97;5054692;28;20036;-63
2022/11/30 09:51:25;;;;;;;49.47;25.10;;;;;;;7.48;90.27;101894.69;5048856;28;20072;-63
2022/11/30 09:53:56;;;;;;;49.15;24.80;;;;;;;7.47;91.32;101893.81;5053925;28;20060;-62
2022/11/30 09:56:25;;;;;;;52.10;27.40;;;;;;;7.47;90.87;101895.50;5052867;28;20029;-64
2022/11/30 09:59:17;;;;;;;49.67;26.90;;;;;;;7.48;91.03;101894.69;5053218;28;20135;-64
2022/11/30 10:01:44;;;;;;;49.53;26.92;;;;;;;7.48;90.84;101898.09;5052995;28;20041;-63
2022/11/30 10:04:41;;;;;;;49.95;27.85;;;;;;;7.47;90.74;101901.53;5054338;28;20037;-63
2022/11/30 10:07:38;;;;;;;48.60;25.65;;;;;;;7.48;91.25;101902.41;5037602;28;20071;-63
2022/11/30 10:10:22;;;;;;;45.85;24.50;;;;;;;7.47;90.28;101895.50;5050986;28;20043;-63
2022/11/30 10:13:15;;;;;;;49.95;26.45;;;;;;;7.50;90.63;101893.00;5051239;28;20052;-62
2022/11/30 10:16:05;;;;;;;49.83;26.02;;;;;;;7.51;91.21;101889.59;5052607;28;20102;-63
2022/11/30 10:18:39;;;;;;;56.00;28.23;;;;;;;7.51;90.54;101889.59;5049529;28;20032;-62
2022/11/30 10:21:20;;;;;;;51.47;26.13;;;;;;;7.51;90.92;101882.75;5047491;28;20647;-63
2022/11/30 10:23:54;;;;;;;48.55;26.30;;;;;;;7.53;90.44;101888.81;5048589;28;20066;-63
2022/11/30 10:26:31;;;;;;;46.92;26.10;;;;;;;7.55;90.36;101881.97;5046633;28;20529;-63
2022/11/30 10:29:11;;;;;;;47.80;25.30;;;;;;;7.58;90.15;101886.31;5049527;28;20448;-63
2022/11/30 10:31:39;;;;;;;52.63;26.80;;;;;;;7.60;90.35;101887.22;5054523;28;20040;-64
2022/11/30 10:34:20;;;;;;;54.28;26.25;;;;;;;7.63;90.29;101885.56;5050268;28;20128;-63
2022/11/30 10:36:57;;;;;;;49.95;25.08;;;;;;;7.68;90.21;101894.28;5047401;28;20040;-63
2022/11/30 10:39:34;;;;;;;47.17;26.90;;;;;;;7.71;90.04;101888.34;5049099;28;20025;-64
2022/11/30 10:42:03;;;;;;;54.33;25.40;;;;;;;7.75;90.48;101892.69;5049736;28;20536;-63
2022/11/30 10:44:33;;;;;;;55.67;29.77;;;;;;;7.72;90.70;101890.94;5054184;28;20780;-63
2022/11/30 10:47:10;;;;;;;57.00;29.25;;;;;;;7.72;91.03;101897.78;5050491;28;20040;-63
2022/11/30 10:49:38;;;;;;;52.75;28.08;;;;;;;7.68;90.90;101891.72;5048800;28;20094;-63
2022/11/30 10:52:07;;;;;;;54.75;29.40;;;;;;;7.69;90.98;101884.84;5052482;28;20427;-63
2022/11/30 10:54:35;;;;;;;57.97;30.08;;;;;;;7.70;90.88;101889.16;5051651;28;20590;-63
2022/11/30 10:57:02;;;;;;;54.58;32.05;;;;;;;7.67;90.00;101877.09;5056890;28;20032;-63
2022/11/30 10:59:47;;;;;;;53.15;30.80;;;;;;;7.70;90.19;101881.44;5052266;28;20032;-63
2022/11/30 11:02:36;;;;;;;62.33;31.52;;;;;;;7.74;90.52;101883.25;5053289;28;20044;-62
2022/11/30 11:05:13;;;;;;;56.90;31.08;;;;;;;7.75;90.25;101884.97;5056497;28;20102;-62
2022/11/30 11:07:49;;;;;;;62.97;32.15;;;;;;;7.73;89.54;101876.34;5050612;28;20091;-63
2022/11/30 11:10:19;;;;;;;59.97;31.27;;;;;;;7.73;89.96;101876.34;5049512;28;20179;-62
2022/11/30 11:12:49;;;;;;;61.58;32.58;;;;;;;7.75;89.49;101883.28;5051343;28;20820;-63
2022/11/30 11:15:21;;;;;;;60.78;30.45;;;;;;;7.73;89.37;101881.50;5050792;28;20043;-63
2022/11/30 11:17:51;;;;;;;63.50;32.78;;;;;;;7.72;89.48;101882.31;5059016;28;20032;-62
2022/11/30 11:20:30;;;;;;;60.42;32.05;;;;;;;7.70;89.12;101879.75;5056736;28;20028;-63